createdAt,value
2022-10-29T00:02:10.022Z,1.63
2022-10-29T00:07:12.632Z,2.45
2022-10-29T00:12:15.324Z,1.80
2022-10-29T00:17:19.245Z,1.70
2022-10-29T00:22:21.976Z,1.88
2022-10-29T00:27:27.541Z,1.65
2022-10-29T00:32:31.724Z,2.03
2022-10-29T00:37:34.349Z,1.88
2022-10-29T00:42:38.694Z,1.90
2022-10-29T00:47:42.778Z,1.35
2022-10-29T00:52:46.984Z,2.00
2022-10-29T00:57:52.421Z,1.50
2022-10-29T01:02:56.725Z,1.63
2022-10-29T01:07:59.681Z,1.80
2022-10-29T01:13:21.195Z,1.80
2022-10-29T01:18:31.301Z,1.30
2022-10-29T01:24:13.507Z,1.92
2022-10-29T01:29:25.442Z,1.90
2022-10-29T01:34:34.526Z,1.42
2022-10-29T01:39:42.273Z,1.83
2022-10-29T01:44:49.326Z,1.50
2022-10-29T01:49:57.383Z,1.73
2022-10-29T01:55:00.132Z,3.00
2022-10-29T02:00:06.636Z,1.80
2022-10-29T02:05:21.818Z,1.33
2022-10-29T02:10:28.197Z,1.60
2022-10-29T02:15:35.384Z,1.75
2022-10-29T02:20:44.271Z,2.30
2022-10-29T02:25:46.999Z,1.58
2022-10-29T02:30:49.666Z,1.92
2022-10-29T02:35:53.632Z,1.40
2022-10-29T02:40:56.261Z,1.90
2022-10-29T02:46:12.642Z,1.83
2022-10-29T02:51:17.427Z,1.42
2022-10-29T02:56:20.121Z,1.98
2022-10-29T03:01:22.793Z,1.90
2022-10-29T03:06:26.877Z,2.03
2022-10-29T03:11:29.486Z,1.40
2022-10-29T03:16:32.106Z,1.60
2022-10-29T03:21:36.146Z,1.83
2022-10-29T03:26:38.746Z,1.90
2022-10-29T03:31:43.694Z,1.85
2022-10-29T03:36:47.732Z,1.80
2022-10-29T03:41:50.350Z,1.65
2022-10-29T03:46:53.012Z,1.88
2022-10-29T03:51:57.057Z,1.65
2022-10-29T03:56:59.729Z,1.73
2022-10-29T04:02:02.590Z,2.42
2022-10-29T04:07:06.747Z,1.80
2022-10-29T04:12:09.933Z,1.42
2022-10-29T04:17:13.124Z,1.60
2022-10-29T04:24:28.957Z,1.67
2022-10-29T04:33:02.260Z,1.60
2022-10-29T04:38:10.354Z,1.35
2022-10-29T04:43:12.997Z,1.55
2022-10-29T04:48:15.737Z,1.65
2022-10-29T04:53:19.743Z,1.70
2022-10-29T04:58:22.345Z,1.85
2022-10-29T05:03:24.981Z,1.88
2022-10-29T05:08:28.964Z,1.75
2022-10-29T05:13:32.060Z,1.42
2022-10-29T05:18:37.359Z,1.75
2022-10-29T05:23:41.343Z,1.65
2022-10-29T05:28:43.986Z,2.85
2022-10-29T05:33:47.489Z,2.38
2022-10-29T05:38:52.176Z,3.90
2022-10-29T05:43:54.813Z,3.38
2022-10-29T05:48:57.459Z,2.40
2022-10-29T05:54:01.472Z,3.20
2022-10-29T05:59:04.079Z,2.60
2022-10-29T06:04:06.720Z,2.40
2022-10-29T06:09:10.632Z,2.03
2022-10-29T06:14:13.359Z,2.10
2022-10-29T06:19:16.084Z,1.90
2022-10-29T06:24:20.087Z,1.95
2022-10-29T06:29:22.648Z,2.03
2022-10-29T06:34:25.204Z,3.05
2022-10-29T06:39:29.129Z,4.40
2022-10-29T06:44:31.740Z,4.47
2022-10-29T06:49:34.366Z,5.32
2022-10-29T06:54:38.396Z,4.93
2022-10-29T06:59:40.972Z,3.58
2022-10-29T07:04:43.604Z,3.67
2022-10-29T07:09:47.744Z,3.00
2022-10-29T07:14:50.444Z,5.03
2022-10-29T07:19:53.045Z,7.03
2022-10-29T07:25:00.272Z,2.67
2022-10-29T07:30:04.184Z,2.60
2022-10-29T07:35:07.441Z,2.40
2022-10-29T07:40:12.860Z,6.40
2022-10-29T07:45:15.490Z,3.60
2022-10-29T07:50:18.226Z,3.20
2022-10-29T07:55:22.604Z,4.20
2022-10-29T08:00:25.900Z,4.10
2022-10-29T08:05:29.910Z,2.30
2022-10-29T08:10:34.575Z,2.13
2022-10-29T08:15:37.301Z,7.75
2022-10-29T08:20:39.935Z,3.15
2022-10-29T08:25:44.527Z,2.80
2022-10-29T08:30:50.991Z,3.08
2022-10-29T08:35:54.874Z,2.90
2022-10-29T08:41:23.514Z,2.65
2022-10-29T08:46:35.031Z,2.97
2022-10-29T08:51:38.766Z,2.63
2022-10-29T08:56:45.934Z,2.38
2022-10-29T09:01:48.870Z,3.50
2022-10-29T09:06:59.860Z,2.30
2022-10-29T09:12:16.721Z,2.80
2022-10-29T09:17:27.019Z,2.60
2022-10-29T09:22:34.514Z,3.72
2022-10-29T09:27:47.131Z,3.70
2022-10-29T09:32:56.398Z,2.55
2022-10-29T09:38:01.223Z,3.30
2022-10-29T09:43:07.967Z,2.75
2022-10-29T09:48:16.037Z,3.60
2022-10-29T09:53:19.334Z,3.15
2022-10-29T09:58:24.925Z,2.70
2022-10-29T10:03:31.515Z,3.33
2022-10-29T10:08:35.220Z,2.35
2022-10-29T10:13:52.297Z,2.75
2022-10-29T10:18:55.308Z,2.42
2022-10-29T10:23:58.625Z,2.50
2022-10-29T10:29:13.509Z,3.13
2022-10-29T10:34:19.973Z,2.60
2022-10-29T10:39:26.882Z,2.53
2022-10-29T10:44:31.026Z,2.97
2022-10-29T10:49:36.095Z,2.60
2022-10-29T10:54:42.039Z,2.20
2022-10-29T10:59:53.275Z,2.38
2022-10-29T11:05:02.192Z,2.45
2022-10-29T11:10:11.897Z,3.25
2022-10-29T11:15:19.332Z,2.83
2022-10-29T11:20:25.216Z,2.65
2022-10-29T11:25:31.587Z,3.17
2022-10-29T11:30:41.157Z,2.83
2022-10-29T11:35:47.174Z,2.05
2022-10-29T11:40:53.700Z,2.95
2022-10-29T11:46:05.627Z,2.80
2022-10-29T11:51:18.503Z,2.28
2022-10-29T11:56:27.022Z,2.65
2022-10-29T12:01:37.861Z,2.83
2022-10-29T12:06:43.521Z,2.90
2022-10-29T12:11:52.579Z,3.03
2022-10-29T12:17:02.860Z,2.72
2022-10-29T12:22:17.087Z,2.70
2022-10-29T12:27:24.332Z,2.88
2022-10-29T12:32:32.853Z,2.58
2022-10-29T12:37:40.814Z,2.60
2022-10-29T12:42:43.818Z,3.05
2022-10-29T12:47:52.341Z,2.97
2022-10-29T12:52:59.369Z,2.60
2022-10-29T12:58:35.791Z,2.47
2022-10-29T13:04:02.230Z,2.90
2022-10-29T13:09:17.222Z,3.22
2022-10-29T13:14:24.800Z,2.72
2022-10-29T13:19:47.702Z,2.80
2022-10-29T13:25:23.557Z,2.55
2022-10-29T13:30:27.509Z,2.33
2022-10-29T13:35:43.736Z,2.90
2022-10-29T13:41:15.429Z,3.10
2022-10-29T13:46:46.052Z,2.70
2022-10-29T13:51:57.352Z,2.67
2022-10-29T13:57:01.381Z,3.15
2022-10-29T14:02:14.612Z,2.13
2022-10-29T14:07:22.604Z,3.00
2022-10-29T14:12:29.054Z,2.40
2022-10-29T14:17:31.724Z,2.03
2022-10-29T14:22:37.412Z,2.05
2022-10-29T14:27:40.115Z,2.63
2022-10-29T14:32:45.305Z,2.50
2022-10-29T14:37:49.766Z,2.47
2022-10-29T14:42:55.319Z,2.15
2022-10-29T14:47:59.591Z,3.40
2022-10-29T14:53:05.585Z,2.58
2022-10-29T14:58:15.979Z,3.30
2022-10-29T15:03:21.692Z,2.63
2022-10-29T15:08:29.337Z,3.08
2022-10-29T15:13:34.709Z,2.97
2022-10-29T15:18:38.827Z,2.95
2022-10-29T15:23:44.759Z,2.80
2022-10-29T15:28:49.165Z,3.25
2022-10-29T15:33:52.462Z,4.18
2022-10-29T15:39:27.779Z,5.80
2022-10-29T15:44:40.637Z,4.43
2022-10-29T15:49:43.272Z,5.78
2022-10-29T15:54:47.689Z,7.53
2022-10-29T15:59:55.312Z,6.20
2022-10-29T16:04:57.978Z,7.43
2022-10-29T16:10:02.549Z,6.75
2022-10-29T16:15:05.817Z,6.25
2022-10-29T16:20:13.191Z,5.82
2022-10-29T16:25:23.479Z,6.25
2022-10-29T16:30:26.203Z,6.10
2022-10-29T16:35:30.685Z,6.65
2022-10-29T16:40:34.637Z,5.47
2022-10-29T16:45:37.327Z,6.78
2022-10-29T16:50:40.113Z,7.45
2022-10-29T16:55:44.246Z,7.82
2022-10-29T17:00:46.981Z,7.55
2022-10-29T17:05:49.621Z,11.40
2022-10-29T17:10:59.875Z,6.72
2022-10-29T17:16:07.323Z,6.55
2022-10-29T17:21:09.966Z,7.22
2022-10-29T17:26:13.965Z,6.10
2022-10-29T17:31:16.598Z,6.90
2022-10-29T17:36:19.492Z,5.80
2022-10-29T17:41:23.484Z,5.43
2022-10-29T17:46:26.111Z,5.20
2022-10-29T17:51:28.970Z,4.97
2022-10-29T17:56:33.252Z,5.55
2022-10-29T18:01:36.162Z,5.70
2022-10-29T18:06:39.062Z,7.90
2022-10-29T18:11:43.189Z,6.13
2022-10-29T18:16:46.407Z,5.75
2022-10-29T18:21:49.220Z,6.32
2022-10-29T18:26:53.360Z,5.22
2022-10-29T18:31:55.985Z,4.80
2022-10-29T18:36:58.584Z,4.78
2022-10-29T18:42:02.557Z,4.65
2022-10-29T18:47:05.362Z,6.35
2022-10-29T18:52:08.138Z,4.72
2022-10-29T18:57:15.394Z,4.13
2022-10-29T19:02:21.428Z,4.50
2022-10-29T19:07:24.215Z,7.15
2022-10-29T19:12:28.198Z,4.10
2022-10-29T19:17:30.867Z,4.75
2022-10-29T19:22:33.706Z,4.32
2022-10-29T19:27:37.702Z,5.43
2022-10-29T19:32:40.395Z,5.82
2022-10-29T19:37:43.117Z,3.85
2022-10-29T19:42:48.460Z,4.22
2022-10-29T19:47:51.067Z,4.28
2022-10-29T19:52:54.080Z,3.85
2022-10-29T19:57:58.448Z,3.72
2022-10-29T20:03:01.217Z,3.90
2022-10-29T20:08:03.852Z,3.85
2022-10-29T20:13:07.762Z,4.25
2022-10-29T20:18:10.386Z,14.43
2022-10-29T20:23:13.198Z,5.57
2022-10-29T20:28:17.176Z,4.88
2022-10-29T20:33:19.781Z,4.40
2022-10-29T20:38:22.424Z,4.97
2022-10-29T20:43:26.406Z,4.88
2022-10-29T20:48:29.058Z,4.80
2022-10-29T20:53:31.768Z,3.72
2022-10-29T20:58:36.866Z,4.55
2022-10-29T21:03:39.500Z,4.57
2022-10-29T21:08:42.100Z,3.92
2022-10-29T21:13:46.299Z,5.80
2022-10-29T21:18:50.537Z,6.28
2022-10-29T21:23:53.210Z,4.03
2022-10-29T21:28:57.328Z,5.25
2022-10-29T21:33:59.930Z,4.18
2022-10-29T21:39:02.531Z,4.57
2022-10-29T21:44:06.524Z,4.75
2022-10-29T21:49:09.364Z,4.78
2022-10-29T21:54:11.983Z,5.20
2022-10-29T21:59:15.982Z,4.57
2022-10-29T22:04:18.768Z,4.70
2022-10-29T22:09:21.365Z,4.55
2022-10-29T22:14:25.332Z,4.55
2022-10-29T22:19:27.945Z,4.45
2022-10-29T22:24:30.640Z,4.28
2022-10-29T22:29:34.630Z,5.03
2022-10-29T22:34:37.228Z,4.57
2022-10-29T22:39:39.852Z,4.38
2022-10-29T22:44:43.828Z,5.70
2022-10-29T22:49:46.498Z,4.55
2022-10-29T22:54:49.115Z,4.50
2022-10-29T22:59:53.044Z,4.40
2022-10-29T23:04:55.898Z,4.72
2022-10-29T23:09:58.552Z,4.38
2022-10-29T23:15:02.490Z,4.40
2022-10-29T23:20:05.727Z,3.85
2022-10-29T23:25:09.169Z,3.70
2022-10-29T23:30:14.085Z,4.00
2022-10-29T23:35:16.789Z,4.25
2022-10-29T23:40:19.772Z,4.10
2022-10-29T23:45:23.754Z,4.15
2022-10-29T23:50:26.482Z,4.15
2022-10-29T23:55:29.125Z,4.47
